Etusivu
METAR-TAF:

METAR-TAF

Lentoasemat :

Dallasin kansainvälinen lentoasema

Dallas / Fort Worth, Texas, Yhdysvallat

Leveyspiiri: 32-53-49N, Pituuspiiri: 097-01-19W, korkeus merenpinnasta: 183 m

Tämänhetkinen sää

Tämä raportti tehtiin 1 tunti ja 4 minuuttia sitten, kello 01.53 UTC
Tuuli 6 kn etelästä
Lämpötila 8°C
Kosteus 49%
Ilmanpaine 1027 hPa
Näkyvyys: 16.1 km
selkeää

METAR: KDFW 110153Z 17006KT 10SM CLR 08/M02 A3034 RMK AO2 SLP273 T00781022

Aika: 20:57 (02:57 UTC)

Sääennuste

Tämä raportti tehtiin 3 tuntia ja 27 minuuttia sitten, kello 23.30 UTC
Ennuste voimassa 11. päivästä klo 00 UTC - 12. päivään klo 06 UTC
Tuuli 4 kn etelästä
Näkyvyys: 10 km
Muutamia pilviä 30000 ft:n korkeudessa
From 11. päivästä klo 1700 UTC
Tuuli 15 kn etelästä
Näkyvyys: 10 km
Hajonneita pilviä 25000 ft:n korkeudessa

TAF: KDFW 102330Z 1100/1206 17004KT P6SM FEW300 FM111700 19015KT P6SM BKN250

Säähavainnot ja -ennusteet yli 4000 lentoasemalta (METAR- ja TAF-raportit).

Käytössä olevat sääasemat on merkitty karttaan keltaisilla ja punaisilla pisteillä.

Aseta hiiri pisteen päälle nähdäksesi sääaseman nimen.

Klikkaa sitten nähdäksesi säähavainnot ja -ennusteet.

Kartan vaihtaminen: klikkaa mustalla rastilla varustettuja vihreitä pisteitä, niin voit zoomata sisään; viivalla varustettua vihreää pistettä, niin voit zoomata ulos tai vihreitä nuolia, niin pääset viereisille kartoille.


METAR-TAF: